Time;durP1;ratioP1;P1;durP2;ratioP2;P2;SDS_P1;SDS_P2;PMS_P1;PMS_P2;Temp;Humidity;BMP_temperature;BMP_pressure;BME280_temperature;BME280_humidity;BME280_pressure;Samples;Min_cycle;Max_cycle;Signal;HPM_P1;HPM_P2
2021/07/22 00:02:24;;;;;;;1999.90;999.90;;;;;;;15.61;97.00;95926.38;5091006;28;20223;-68
2021/07/22 00:04:51;;;;;;;1999.90;999.90;;;;;;;15.61;96.84;95921.16;5091149;28;20995;-68
2021/07/22 00:07:19;;;;;;;1999.90;999.90;;;;;;;15.55;97.12;95922.41;5091408;28;20199;-68
2021/07/22 00:09:47;;;;;;;1999.90;999.90;;;;;;;15.50;97.28;95920.69;5091416;28;20671;-68
2021/07/22 00:12:14;;;;;;;1999.90;999.90;;;;;;;15.59;97.54;95923.34;5091297;28;20199;-68
2021/07/22 00:14:42;;;;;;;1999.90;999.90;;;;;;;15.56;97.36;95923.94;5090629;28;20264;-69
2021/07/22 00:17:10;;;;;;;1999.90;999.90;;;;;;;15.58;97.41;95908.69;5090912;28;20199;-69
2021/07/22 00:19:37;;;;;;;1999.90;999.90;;;;;;;15.58;97.77;95908.69;5090818;28;20224;-69
2021/07/22 00:22:05;;;;;;;1999.90;999.90;;;;;;;15.36;98.13;95915.66;5091121;28;20200;-68
2021/07/22 00:24:32;;;;;;;1999.90;999.90;;;;;;;15.14;98.25;95913.25;5091102;28;20210;-70
2021/07/22 00:27:01;;;;;;;1999.90;999.90;;;;;;;15.07;99.08;95907.72;5090744;28;20196;-70
2021/07/22 00:29:30;;;;;;;1999.90;999.90;;;;;;;15.10;99.38;95899.22;5091089;28;20191;-72
2021/07/22 00:31:58;;;;;;;1999.90;999.90;;;;;;;15.13;99.79;95896.00;5090683;28;20668;-70
2021/07/22 00:34:25;;;;;;;1999.90;999.90;;;;;;;15.23;100.00;95905.38;5090502;28;20583;-71
2021/07/22 00:36:52;;;;;;;1999.90;999.90;;;;;;;15.28;99.81;95892.91;5090804;28;20196;-70
2021/07/22 00:39:19;;;;;;;1999.90;999.90;;;;;;;15.29;99.79;95897.03;5090670;28;20289;-71
2021/07/22 00:41:47;;;;;;;1999.90;999.90;;;;;;;15.14;100.00;95910.66;5090698;28;20616;-71
2021/07/22 00:44:15;;;;;;;1999.90;999.90;;;;;;;15.19;100.00;95904.47;5090452;28;20300;-71
2021/07/22 00:46:42;;;;;;;1999.90;999.90;;;;;;;15.23;100.00;95893.06;5090319;28;20195;-71
2021/07/22 00:49:10;;;;;;;1999.90;999.90;;;;;;;15.30;100.00;95900.41;5090264;28;20196;-68
2021/07/22 00:51:37;;;;;;;1999.90;999.90;;;;;;;15.45;99.83;95903.28;5090251;28;20196;-69
2021/07/22 00:54:06;;;;;;;1999.90;999.90;;;;;;;15.49;99.42;95898.97;5090393;28;20196;-69
2021/07/22 00:56:33;;;;;;;1999.90;999.90;;;;;;;15.44;99.78;95890.53;5090086;28;20680;-69
2021/07/22 00:59:00;;;;;;;1999.90;999.90;;;;;;;15.40;99.64;95895.59;5090377;28;20648;-68
2021/07/22 01:01:29;;;;;;;1999.90;999.90;;;;;;;15.26;99.15;95896.88;5090335;28;20203;-68
2021/07/22 01:03:56;;;;;;;1999.90;999.90;;;;;;;15.23;99.15;95890.44;5089879;28;20227;-67
2021/07/22 01:06:24;;;;;;;1999.90;999.90;;;;;;;15.25;99.05;95879.63;5090440;28;20203;-68
2021/07/22 01:08:52;;;;;;;1999.90;999.90;;;;;;;15.21;98.91;95887.34;5089924;28;20196;-68
2021/07/22 01:11:19;;;;;;;1999.90;999.90;;;;;;;15.11;99.55;95892.94;5089841;28;20195;-69
2021/07/22 01:13:47;;;;;;;1999.90;999.90;;;;;;;14.93;99.59;95891.44;5090068;28;20667;-68
2021/07/22 01:16:14;;;;;;;1999.90;999.90;;;;;;;14.91;99.62;95890.97;5090103;28;21037;-69
2021/07/22 01:18:42;;;;;;;1999.90;999.90;;;;;;;14.96;99.59;95894.19;5089608;28;20270;-68
2021/07/22 01:21:11;;;;;;;1999.90;999.90;;;;;;;14.98;100.00;95899.13;5089929;28;20199;-69
2021/07/22 01:23:38;;;;;;;1999.90;999.90;;;;;;;14.86;100.00;95901.59;5089673;28;20204;-68
2021/07/22 01:26:05;;;;;;;1999.90;999.90;;;;;;;14.75;100.00;95901.13;5089590;28;20207;-68
2021/07/22 01:28:32;;;;;;;1999.90;999.90;;;;;;;14.94;100.00;95908.69;5089448;28;20196;-69
2021/07/22 01:31:00;;;;;;;1999.90;999.90;;;;;;;14.95;100.00;95899.72;5089507;28;20196;-68
2021/07/22 01:33:27;;;;;;;1999.90;999.90;;;;;;;14.93;100.00;95902.66;5089398;28;20215;-69
2021/07/22 01:35:55;;;;;;;1999.90;999.90;;;;;;;14.96;100.00;95896.03;5089583;28;20195;-68
2021/07/22 01:38:23;;;;;;;1999.90;999.90;;;;;;;14.95;100.00;95890.03;5089654;28;20281;-68
2021/07/22 01:40:50;;;;;;;1999.90;999.90;;;;;;;14.94;100.00;95890.34;5089476;28;20199;-68
2021/07/22 01:43:17;;;;;;;1999.90;999.90;;;;;;;14.90;100.00;95892.03;5089309;28;20203;-68
2021/07/22 01:45:44;;;;;;;1999.90;999.90;;;;;;;14.77;100.00;95892.97;5089750;28;20199;-67
2021/07/22 01:48:11;;;;;;;1999.90;999.90;;;;;;;14.74;100.00;95886.53;5089422;28;20687;-68
2021/07/22 01:50:38;;;;;;;1999.90;999.90;;;;;;;14.68;100.00;95897.47;5089345;28;20245;-68
2021/07/22 01:53:05;;;;;;;1999.90;999.90;;;;;;;14.60;100.00;95889.28;5089059;28;20207;-68
2021/07/22 01:55:34;;;;;;;1999.90;999.90;;;;;;;14.54;100.00;95893.16;5086594;28;20227;-71
2021/07/22 01:58:01;;;;;;;1999.90;999.90;;;;;;;14.58;100.00;95890.69;5088897;28;20204;-70
2021/07/22 02:00:28;;;;;;;1999.90;999.90;;;;;;;14.67;100.00;95893.28;5080990;28;20712;-72
2021/07/22 02:02:56;;;;;;;1999.90;999.90;;;;;;;14.69;100.00;95891.16;5085727;28;20309;-70
2021/07/22 02:05:23;;;;;;;1999.90;999.90;;;;;;;14.80;100.00;95894.97;5087569;28;20261;-69
2021/07/22 02:07:50;;;;;;;1999.90;999.90;;;;;;;14.79;100.00;95890.84;5089038;28;20200;-70
2021/07/22 02:10:17;;;;;;;1999.90;999.90;;;;;;;14.75;100.00;95888.06;5087321;28;20248;-69
2021/07/22 02:12:46;;;;;;;1999.90;999.90;;;;;;;14.83;100.00;95894.38;5088454;28;20731;-70
2021/07/22 02:15:14;;;;;;;1999.90;999.90;;;;;;;14.89;100.00;95893.13;5085934;28;20199;-70
2021/07/22 02:17:41;;;;;;;1999.90;999.90;;;;;;;14.84;100.00;95894.06;5089156;28;20206;-75
2021/07/22 02:20:09;;;;;;;1999.90;999.90;;;;;;;14.86;100.00;95897.13;5088239;28;20255;-76
2021/07/22 02:22:36;;;;;;;1999.90;999.90;;;;;;;14.89;100.00;95900.97;5088764;28;20200;-76
2021/07/22 02:25:04;;;;;;;1999.90;999.90;;;;;;;14.85;100.00;95905.28;5088941;28;20625;-76
2021/07/22 02:27:35;;;;;;;1999.90;999.90;;;;;;;14.71;100.00;95897.59;5088453;28;20253;-68
2021/07/22 02:30:05;;;;;;;1999.90;999.90;;;;;;;14.81;100.00;95902.50;5088467;28;20206;-70
2021/07/22 02:32:32;;;;;;;1999.90;999.90;;;;;;;14.89;100.00;95899.13;5088736;28;20217;-71
2021/07/22 02:34:59;;;;;;;1999.90;999.90;;;;;;;14.89;100.00;95911.44;5088488;28;20196;-72
2021/07/22 02:37:26;;;;;;;1999.90;999.90;;;;;;;14.83;100.00;95913.47;5088594;28;20284;-70
2021/07/22 02:39:53;;;;;;;1999.90;999.90;;;;;;;14.89;100.00;95916.69;5088220;28;20989;-71
2021/07/22 02:42:20;;;;;;;1999.90;999.90;;;;;;;14.87;100.00;95919.59;5088640;28;20199;-71
2021/07/22 02:44:47;;;;;;;1999.90;999.90;;;;;;;14.87;100.00;95913.59;5088268;28;20260;-70
2021/07/22 02:47:16;;;;;;;1999.90;999.90;;;;;;;14.69;100.00;95912.84;5088519;28;20199;-69
2021/07/22 02:49:43;;;;;;;1999.90;999.90;;;;;;;14.73;100.00;95913.00;5088253;28;20188;-69
2021/07/22 02:52:10;;;;;;;1999.90;999.90;;;;;;;14.75;100.00;95910.81;5087758;28;20895;-70
2021/07/22 02:54:37;;;;;;;1999.90;999.90;;;;;;;14.73;100.00;95911.16;5088137;28;20200;-69
2021/07/22 02:57:04;;;;;;;1999.90;999.90;;;;;;;14.72;100.00;95906.22;5084553;28;20249;-75
2021/07/22 02:59:32;;;;;;;1999.90;999.90;;;;;;;14.77;100.00;95903.44;5079229;28;20227;-68
2021/07/22 03:01:59;;;;;;;1999.90;999.90;;;;;;;14.78;100.00;95902.38;5087638;28;20249;-71
2021/07/22 03:04:29;;;;;;;1999.90;999.90;;;;;;;14.80;100.00;95914.06;5088374;28;20192;-70
2021/07/22 03:06:56;;;;;;;1999.90;999.90;;;;;;;14.83;100.00;95912.69;5088385;28;20250;-70
2021/07/22 03:09:23;;;;;;;1999.90;999.90;;;;;;;14.70;100.00;95908.38;5076412;28;20631;-68
2021/07/22 03:11:50;;;;;;;1999.90;999.90;;;;;;;14.69;100.00;95912.09;5071893;28;20292;-69
2021/07/22 03:14:17;;;;;;;1999.90;999.90;;;;;;;14.77;100.00;95916.53;5071689;28;20201;-68
2021/07/22 03:16:44;;;;;;;1999.90;999.90;;;;;;;14.82;100.00;95919.75;5071830;28;20565;-69
2021/07/22 03:19:11;;;;;;;1999.90;999.90;;;;;;;14.70;100.00;95910.97;5071546;28;20207;-69
2021/07/22 03:21:40;;;;;;;1999.90;999.90;;;;;;;14.84;100.00;95909.00;5071461;28;20215;-68
2021/07/22 03:24:07;;;;;;;1999.90;999.90;;;;;;;14.90;100.00;95908.50;5071555;28;20208;-68
2021/07/22 03:26:34;;;;;;;1999.90;999.90;;;;;;;14.95;100.00;95905.72;5073663;28;20192;-67
2021/07/22 03:29:02;;;;;;;1999.90;999.90;;;;;;;15.00;100.00;95904.78;5085986;28;20203;-68
2021/07/22 03:31:29;;;;;;;1999.90;999.90;;;;;;;14.92;100.00;95898.50;5080320;28;20203;-67
2021/07/22 03:33:56;;;;;;;1999.90;999.90;;;;;;;14.90;100.00;95903.28;5092071;28;20253;-68
2021/07/22 03:36:23;;;;;;;1999.90;999.90;;;;;;;15.00;100.00;95896.94;5073042;28;20212;-69
2021/07/22 03:38:52;;;;;;;1999.90;999.90;;;;;;;15.07;100.00;95902.47;5091603;28;20874;-70
2021/07/22 03:41:22;;;;;;;1999.90;999.90;;;;;;;15.09;100.00;95895.84;5091981;28;20280;-69
2021/07/22 03:43:49;;;;;;;1999.90;999.90;;;;;;;15.11;100.00;95902.63;5084765;28;20192;-68
2021/07/22 03:46:17;;;;;;;1999.90;999.90;;;;;;;15.06;100.00;95908.78;5091470;28;20434;-68
2021/07/22 03:48:44;;;;;;;1999.90;999.90;;;;;;;15.23;100.00;95913.25;5091447;28;20256;-67
2021/07/22 03:51:11;;;;;;;1999.90;999.90;;;;;;;15.21;100.00;95920.63;5091508;28;20200;-67
2021/07/22 03:53:39;;;;;;;1999.90;999.90;;;;;;;15.20;100.00;95926.94;5091527;28;20207;-70
2021/07/22 03:56:07;;;;;;;1999.90;999.90;;;;;;;15.31;100.00;95926.31;5088553;28;20737;-68
2021/07/22 03:58:34;;;;;;;1999.90;999.90;;;;;;;15.38;100.00;95923.22;5084524;28;20200;-67
2021/07/22 04:01:02;;;;;;;1999.90;999.90;;;;;;;15.34;100.00;95923.03;5071085;28;20208;-68
2021/07/22 04:03:35;;;;;;;1999.90;999.90;;;;;;;15.40;100.00;95927.03;5071236;28;20293;-67
2021/07/22 04:06:03;;;;;;;1999.90;999.90;;;;;;;15.53;100.00;95932.44;5086259;28;20223;-65
2021/07/22 04:08:30;;;;;;;1999.90;999.90;;;;;;;15.59;100.00;95939.06;5070099;28;20212;-66
2021/07/22 04:10:57;;;;;;;1999.90;999.90;;;;;;;15.63;100.00;95940.72;5067449;28;20278;-66
2021/07/22 04:13:26;;;;;;;1999.90;999.90;;;;;;;15.72;99.90;95938.84;5070179;28;20200;-66
2021/07/22 04:15:53;;;;;;;1999.90;999.90;;;;;;;15.79;99.63;95940.97;5087538;28;20196;-66
2021/07/22 04:18:20;;;;;;;1999.90;999.90;;;;;;;15.88;99.28;95944.31;5087221;28;20206;-66
2021/07/22 04:20:47;;;;;;;1999.90;999.90;;;;;;;15.86;99.33;95943.88;5086738;28;21024;-67
2021/07/22 04:23:14;;;;;;;1999.90;999.90;;;;;;;15.91;99.51;95954.16;5087760;28;20200;-66
2021/07/22 04:25:41;;;;;;;1999.90;999.90;;;;;;;15.99;100.00;95953.34;5090468;28;20204;-66
2021/07/22 04:28:08;;;;;;;1999.90;999.90;;;;;;;16.03;100.00;95954.28;5090912;28;20204;-66
2021/07/22 04:30:37;;;;;;;1999.90;999.90;;;;;;;16.17;100.00;95949.56;5090691;28;20204;-67
2021/07/22 04:33:05;;;;;;;1999.90;999.90;;;;;;;16.26;100.00;95950.28;5090623;28;20624;-66
2021/07/22 04:35:32;;;;;;;1999.90;999.90;;;;;;;16.54;99.97;95953.19;5090560;28;20200;-68
2021/07/22 04:38:00;;;;;;;1999.90;999.90;;;;;;;16.88;97.62;95944.34;5090605;28;20704;-67
2021/07/22 04:40:27;;;;;;;1999.90;999.90;;;;;;;17.33;96.59;95949.63;5090531;28;20227;-66
2021/07/22 04:42:54;;;;;;;1999.90;999.90;;;;;;;17.80;94.18;95944.03;5090367;28;20199;-67
2021/07/22 04:45:21;;;;;;;1999.90;999.90;;;;;;;18.56;89.04;95959.91;5090313;28;20203;-67
2021/07/22 04:47:50;;;;;;;1999.90;999.90;;;;;;;18.93;87.17;95956.06;5090465;28;20602;-68
2021/07/22 04:50:17;;;;;;;1999.90;999.90;;;;;;;19.08;85.60;95964.38;5090525;28;20192;-67
2021/07/22 04:52:44;;;;;;;1999.90;999.90;;;;;;;18.97;87.37;95958.06;5090029;28;20206;-67
2021/07/22 04:55:11;;;;;;;1999.90;999.90;;;;;;;18.88;87.34;95951.03;5090209;28;20671;-67
2021/07/22 04:57:39;;;;;;;1999.90;999.90;;;;;;;18.80;88.27;95956.44;5089961;28;20200;-67
2021/07/22 05:00:07;;;;;;;1999.90;999.90;;;;;;;18.73;89.00;95959.66;5090265;28;20228;-67
2021/07/22 05:02:34;;;;;;;1999.90;999.90;;;;;;;18.61;88.44;95951.78;5089687;28;20229;-67
2021/07/22 05:05:03;;;;;;;1999.90;999.90;;;;;;;18.69;89.62;95952.75;5083199;28;20557;-67
2021/07/22 05:07:30;;;;;;;1999.90;999.90;;;;;;;18.91;90.38;95958.28;5069934;28;20208;-68
2021/07/22 05:09:57;;;;;;;1999.90;999.90;;;;;;;19.21;90.24;95956.09;5069524;28;20203;-68
2021/07/22 05:12:24;;;;;;;1999.90;999.90;;;;;;;19.32;88.78;95953.72;5069954;28;20557;-68
2021/07/22 05:14:51;;;;;;;1999.90;999.90;;;;;;;19.52;86.00;95957.28;5069835;28;20207;-68
2021/07/22 05:17:18;;;;;;;1999.90;999.90;;;;;;;19.55;85.99;95962.63;5069907;28;20271;-68
2021/07/22 05:19:45;;;;;;;1999.90;999.90;;;;;;;19.62;83.85;95956.78;5069429;28;20197;-68
2021/07/22 05:22:14;;;;;;;1999.90;999.90;;;;;;;19.78;83.72;95954.88;5069661;28;20587;-68
2021/07/22 05:24:41;;;;;;;1999.90;999.90;;;;;;;19.72;85.15;95949.13;5069523;28;20672;-68
2021/07/22 05:27:08;;;;;;;1999.90;999.90;;;;;;;19.71;87.11;95955.50;5069781;28;20209;-68
2021/07/22 05:29:35;;;;;;;1999.90;999.90;;;;;;;19.93;86.93;95956.00;5069556;28;21029;-66
2021/07/22 05:32:02;;;;;;;1999.90;999.90;;;;;;;20.12;85.28;95956.09;5068860;28;20196;-68
2021/07/22 05:34:29;;;;;;;1999.90;999.90;;;;;;;20.42;83.78;95956.41;5069313;28;20219;-66
2021/07/22 05:36:56;;;;;;;1999.90;999.90;;;;;;;20.61;82.52;95959.06;5069171;28;20208;-67
2021/07/22 05:39:25;;;;;;;1999.90;999.90;;;;;;;20.81;79.96;95955.34;5069425;28;20208;-66
2021/07/22 05:41:52;;;;;;;1999.90;999.90;;;;;;;20.76;83.64;95960.13;5069341;28;20591;-66
2021/07/22 05:44:19;;;;;;;1999.90;999.90;;;;;;;20.80;82.86;95958.31;5069310;28;20203;-66
2021/07/22 05:46:46;;;;;;;1999.90;999.90;;;;;;;20.93;81.81;95957.06;5069325;28;20201;-67
2021/07/22 05:49:13;;;;;;;1999.90;999.90;;;;;;;20.93;82.75;95955.19;5069047;28;20200;-66
2021/07/22 05:51:40;;;;;;;1999.90;999.90;;;;;;;21.15;81.78;95966.97;5069398;28;20193;-66
2021/07/22 05:54:09;;;;;;;1999.90;999.90;;;;;;;21.40;81.76;95965.56;5089435;28;20207;-65
2021/07/22 05:56:38;;;;;;;1999.90;999.90;;;;;;;21.43;79.05;95967.50;5088913;28;20231;-65
2021/07/22 05:59:05;;;;;;;1999.90;999.90;;;;;;;21.55;77.41;95960.53;5089158;28;20199;-66
2021/07/22 06:01:33;;;;;;;1999.90;999.90;;;;;;;21.50;79.43;95961.56;5089067;28;20228;-66
2021/07/22 06:04:00;;;;;;;1999.90;999.90;;;;;;;21.63;77.54;95962.94;5088765;28;20228;-66
2021/07/22 06:06:27;;;;;;;1999.90;999.90;;;;;;;21.47;78.47;95964.91;5089362;28;20641;-66
2021/07/22 06:08:55;;;;;;;1999.90;999.90;;;;;;;21.76;78.59;95961.66;5088530;28;20196;-66
2021/07/22 06:11:22;;;;;;;1999.90;999.90;;;;;;;22.12;76.29;95960.34;5088932;28;20276;-66
2021/07/22 06:13:50;;;;;;;1999.90;999.90;;;;;;;22.40;75.69;95965.31;5088794;28;20707;-66
2021/07/22 06:16:17;;;;;;;1999.90;999.90;;;;;;;22.55;74.69;95963.63;5088903;28;20253;-67
2021/07/22 06:18:45;;;;;;;1999.90;999.90;;;;;;;22.50;73.21;95958.63;5088945;28;20689;-66
2021/07/22 06:21:17;;;;;;;1999.90;999.90;;;;;;;22.41;73.84;95966.06;5088856;28;20211;-66
2021/07/22 06:23:45;;;;;;;1999.90;999.90;;;;;;;22.34;73.35;95972.03;5088817;28;20207;-66
2021/07/22 06:26:13;;;;;;;1999.90;999.90;;;;;;;22.62;72.64;95967.09;5088976;28;20226;-66
2021/07/22 06:28:40;;;;;;;1999.90;999.90;;;;;;;22.66;69.81;95970.59;5088999;28;20211;-67
2021/07/22 06:31:09;;;;;;;1999.90;999.90;;;;;;;23.02;71.22;95971.81;5088717;28;20696;-67
2021/07/22 06:33:36;;;;;;;1999.90;999.90;;;;;;;23.18;66.99;95982.22;5088748;28;20702;-66
2021/07/22 06:36:03;;;;;;;1999.90;999.90;;;;;;;23.24;67.00;95977.34;5089027;28;20579;-67
2021/07/22 06:38:31;;;;;;;1999.90;999.90;;;;;;;23.35;66.56;95973.69;5088995;28;20207;-67
2021/07/22 06:40:58;;;;;;;1999.90;999.90;;;;;;;23.31;66.83;95977.44;5088443;28;20231;-66
2021/07/22 06:43:25;;;;;;;1999.90;999.90;;;;;;;23.34;65.79;95969.50;5091277;28;20257;-67
2021/07/22 06:45:52;;;;;;;1999.90;999.90;;;;;;;23.16;66.93;95973.88;5092633;28;20233;-67
2021/07/22 06:48:21;;;;;;;1999.90;999.90;;;;;;;23.21;65.71;95964.81;5092627;28;20207;-67
2021/07/22 06:50:49;;;;;;;1999.90;999.90;;;;;;;23.09;66.67;95969.25;5092927;28;20195;-67
2021/07/22 06:53:16;;;;;;;1999.90;999.90;;;;;;;23.42;67.84;95962.38;5092346;28;20260;-67
2021/07/22 06:55:43;;;;;;;1999.90;999.90;;;;;;;23.35;65.50;95965.75;5092732;28;20202;-66
2021/07/22 06:58:11;;;;;;;1999.90;999.90;;;;;;;23.45;64.98;95962.47;5092419;28;20206;-65
2021/07/22 07:00:38;;;;;;;1999.90;999.90;;;;;;;23.69;65.05;95963.06;5092558;28;20224;-66
2021/07/22 07:03:06;;;;;;;1999.90;999.90;;;;;;;23.85;64.15;95951.06;5092104;28;20238;-66
2021/07/22 07:05:35;;;;;;;1999.90;999.90;;;;;;;24.00;64.92;95955.38;5092151;28;20196;-66
2021/07/22 07:08:03;;;;;;;1999.90;999.90;;;;;;;23.97;62.89;95950.78;5092308;28;20718;-66
2021/07/22 07:10:31;;;;;;;1999.90;999.90;;;;;;;24.20;61.68;95952.50;5092108;28;20683;-66
2021/07/22 07:12:58;;;;;;;1999.90;999.90;;;;;;;24.22;61.06;95943.00;5092124;28;20191;-66
2021/07/22 07:15:25;;;;;;;1999.90;999.90;;;;;;;24.10;62.37;95943.28;5092433;28;20298;-66
2021/07/22 07:17:53;;;;;;;1999.90;999.90;;;;;;;24.31;62.71;95945.34;5092105;28;20198;-66
2021/07/22 07:20:20;;;;;;;1999.90;999.90;;;;;;;24.08;63.32;95944.78;5092245;28;20195;-67
2021/07/22 07:22:51;;;;;;;1999.90;999.90;;;;;;;24.11;60.99;95939.47;5092088;28;20261;-67
2021/07/22 07:25:18;;;;;;;1999.90;999.90;;;;;;;24.55;62.87;95939.41;5092137;28;20193;-67
2021/07/22 07:27:45;;;;;;;1999.90;999.90;;;;;;;24.43;59.76;95937.06;5091940;28;20207;-67
2021/07/22 07:30:13;;;;;;;1999.90;999.90;;;;;;;24.13;60.32;95936.47;5091861;28;20199;-66
2021/07/22 07:32:40;;;;;;;1999.90;999.90;;;;;;;24.53;58.34;95931.06;5091822;28;20200;-67
2021/07/22 07:35:08;;;;;;;1999.90;999.90;;;;;;;24.73;57.75;95934.19;5091780;28;20575;-67
2021/07/22 07:37:35;;;;;;;1999.90;999.90;;;;;;;24.68;59.03;95931.88;5091794;28;21053;-66
2021/07/22 07:40:04;;;;;;;1999.90;999.90;;;;;;;24.85;55.25;95936.53;5091935;28;20200;-66
2021/07/22 07:42:31;;;;;;;1999.90;999.90;;;;;;;25.14;53.78;95932.09;5091678;28;20223;-67
2021/07/22 07:44:58;;;;;;;1999.90;999.90;;;;;;;25.37;55.48;95927.19;5091532;28;20192;-68
2021/07/22 07:47:25;;;;;;;1999.90;999.90;;;;;;;25.26;56.05;95932.47;5091909;28;20347;-66
2021/07/22 07:49:53;;;;;;;1999.90;999.90;;;;;;;25.26;57.82;95931.72;5091318;28;20203;-66
2021/07/22 07:52:20;;;;;;;1999.90;999.90;;;;;;;25.27;56.71;95927.94;5091375;28;20202;-67
2021/07/22 07:54:51;;;;;;;1999.90;999.90;;;;;;;25.29;56.52;95929.09;5090655;28;20219;-67
2021/07/22 07:57:19;;;;;;;1999.90;999.90;;;;;;;25.33;56.92;95929.09;5091442;28;20706;-67
2021/07/22 07:59:47;;;;;;;1999.90;999.90;;;;;;;25.53;55.72;95932.16;5091303;28;20249;-67
2021/07/22 08:02:15;;;;;;;1999.90;999.90;;;;;;;25.70;54.60;95932.19;5091031;28;21106;-65
2021/07/22 08:04:42;;;;;;;1999.90;999.90;;;;;;;25.52;53.96;95935.94;5091121;28;20215;-66
2021/07/22 08:07:10;;;;;;;1999.90;999.90;;;;;;;25.57;52.94;95935.59;5091306;28;20210;-66
2021/07/22 08:09:37;;;;;;;1999.90;999.90;;;;;;;26.03;51.39;95939.06;5091290;28;20634;-66
2021/07/22 08:12:04;;;;;;;1999.90;999.90;;;;;;;26.12;49.99;95930.66;5091379;28;20196;-67
2021/07/22 08:14:37;;;;;;;1999.90;999.90;;;;;;;26.58;48.49;95929.84;5091017;28;20196;-67
2021/07/22 08:17:05;;;;;;;1999.90;999.90;;;;;;;26.66;46.89;95928.66;5090907;28;20263;-67
2021/07/22 08:19:33;;;;;;;1999.90;999.90;;;;;;;26.84;47.46;95937.38;5090939;28;20215;-67
2021/07/22 08:22:01;;;;;;;1999.90;999.90;;;;;;;27.03;46.46;95928.94;5091268;28;20228;-68
2021/07/22 08:24:28;;;;;;;1999.90;999.90;;;;;;;26.97;45.47;95939.25;5091439;28;20192;-67
2021/07/22 08:26:55;;;;;;;1999.90;999.90;;;;;;;26.80;44.98;95925.97;5091012;28;20200;-66
2021/07/22 08:29:22;;;;;;;1999.90;999.90;;;;;;;26.51;44.75;95933.28;5090922;28;20687;-65
2021/07/22 08:31:51;;;;;;;1999.90;999.90;;;;;;;26.08;47.92;95938.66;5090795;28;20196;-66
2021/07/22 08:34:19;;;;;;;1999.90;999.90;;;;;;;26.00;47.32;95936.41;5090606;28;20196;-65
2021/07/22 08:36:47;;;;;;;1999.90;999.90;;;;;;;25.79;47.66;95944.38;5090692;28;20199;-65
2021/07/22 08:39:14;;;;;;;1999.90;999.90;;;;;;;25.63;48.81;95937.53;5090760;28;20283;-66
2021/07/22 08:41:46;;;;;;;1999.90;999.90;;;;;;;25.47;51.99;95944.31;5090473;28;20232;-67
2021/07/22 08:44:14;;;;;;;1999.90;999.90;;;;;;;25.20;51.48;95946.56;5090520;28;20184;-66
2021/07/22 08:46:42;;;;;;;1999.90;999.90;;;;;;;25.28;52.59;95940.88;5090421;28;20288;-67
2021/07/22 08:49:11;;;;;;;1999.90;999.90;;;;;;;25.09;52.04;95945.75;5090513;28;20292;-66
2021/07/22 08:51:38;;;;;;;1999.90;999.90;;;;;;;24.82;50.36;95940.69;5090625;28;20632;-67
2021/07/22 08:54:05;;;;;;;1999.90;999.90;;;;;;;24.68;51.03;95940.63;5090422;28;20657;-65
2021/07/22 08:56:33;;;;;;;1999.90;999.90;;;;;;;24.65;51.91;95944.03;5090524;28;20744;-66
2021/07/22 08:59:02;;;;;;;1999.90;999.90;;;;;;;24.83;51.71;95938.78;5090024;28;20254;-66
2021/07/22 09:01:32;;;;;;;1999.90;999.90;;;;;;;24.91;51.65;95951.00;5090340;28;20230;-67
2021/07/22 09:03:59;;;;;;;1999.90;999.90;;;;;;;24.99;51.35;95946.47;5089906;28;20239;-67
2021/07/22 09:06:28;;;;;;;1999.90;999.90;;;;;;;25.08;51.15;95944.97;5090165;28;20935;-67
2021/07/22 09:08:55;;;;;;;1999.90;999.90;;;;;;;25.12;52.84;95943.09;5089859;28;20196;-67
2021/07/22 09:11:22;;;;;;;1999.90;999.90;;;;;;;25.09;50.66;95940.44;5090244;28;20192;-67
2021/07/22 09:14:10;;;;;;;1999.90;999.90;;;;;;;24.95;49.61;95946.47;5089935;28;20199;-67
2021/07/22 09:16:38;;;;;;;1999.90;999.90;;;;;;;24.72;49.96;95937.97;5090358;28;20204;-67
2021/07/22 09:19:05;;;;;;;1999.90;999.90;;;;;;;24.81;48.83;95933.81;5090130;28;20222;-69
2021/07/22 09:21:34;;;;;;;1999.90;999.90;;;;;;;24.77;49.01;95933.06;5090211;28;20219;-66
2021/07/22 09:24:06;;;;;;;1999.90;999.90;;;;;;;24.59;51.82;95940.19;5089612;28;20203;-68
2021/07/22 09:26:35;;;;;;;1999.90;999.90;;;;;;;24.66;52.19;95931.47;5089975;28;20196;-67
2021/07/22 09:29:05;;;;;;;1999.90;999.90;;;;;;;24.82;51.98;95932.69;5089949;28;20200;-68
2021/07/22 09:31:32;;;;;;;1999.90;999.90;;;;;;;24.94;52.32;95930.88;5089623;28;20195;-67
2021/07/22 09:34:00;;;;;;;1999.90;999.90;;;;;;;25.07;52.03;95926.72;5089807;28;20291;-67
2021/07/22 09:36:35;;;;;;;1999.90;999.90;;;;;;;25.23;51.95;95935.91;5089792;28;20196;-66
2021/07/22 09:39:23;;;;;;;1999.90;999.90;;;;;;;25.37;50.40;95926.41;5089466;28;20199;-67
2021/07/22 09:41:58;;;;;;;1999.90;999.90;;;;;;;25.39;50.98;95926.81;5089266;28;20719;-67
2021/07/22 09:44:33;;;;;;;1999.90;999.90;;;;;;;25.56;50.51;95926.09;5089320;28;20576;-67
2021/07/22 09:47:01;;;;;;;1999.90;999.90;;;;;;;25.60;51.05;95932.22;5089686;28;20631;-67
2021/07/22 09:49:32;;;;;;;1999.90;999.90;;;;;;;25.65;51.19;95924.56;5089707;28;20634;-67
2021/07/22 09:52:03;;;;;;;1999.90;999.90;;;;;;;25.73;50.61;95929.91;5089201;28;20756;-67
2021/07/22 09:54:35;;;;;;;1999.90;999.90;;;;;;;26.01;49.45;95919.25;5089949;28;20253;-67
2021/07/22 09:57:03;;;;;;;1999.90;999.90;;;;;;;26.23;46.54;95917.34;5089099;28;20199;-67
2021/07/22 09:59:30;;;;;;;1999.90;999.90;;;;;;;26.27;46.86;95918.88;5089516;28;20616;-67
2021/07/22 10:02:03;;;;;;;1999.90;999.90;;;;;;;26.12;45.59;95925.34;5088785;28;20305;-67
2021/07/22 10:04:32;;;;;;;1999.90;999.90;;;;;;;26.17;45.43;95919.63;5089126;28;20188;-67
2021/07/22 10:07:03;;;;;;;1999.90;999.90;;;;;;;26.16;44.98;95915.44;5089380;28;20282;-67
2021/07/22 10:09:34;;;;;;;1999.90;999.90;;;;;;;26.16;46.24;95899.44;5089082;28;20176;-67
2021/07/22 10:12:03;;;;;;;1999.90;999.90;;;;;;;26.39;45.97;95902.47;5089375;28;20227;-67
2021/07/22 10:14:31;;;;;;;1999.90;999.90;;;;;;;26.61;45.81;95900.50;5088922;28;20286;-67
2021/07/22 10:17:01;;;;;;;1999.90;999.90;;;;;;;26.64;46.71;95902.41;5088811;28;20297;-67
2021/07/22 10:19:29;;;;;;;1999.90;999.90;;;;;;;26.65;44.34;95900.50;5089189;28;20285;-67
2021/07/22 10:21:58;;;;;;;1999.90;999.90;;;;;;;26.42;45.43;95900.94;5088793;28;20310;-67
2021/07/22 10:24:27;;;;;;;1999.90;999.90;;;;;;;26.44;44.02;95894.09;5088535;28;20996;-67
2021/07/22 10:26:55;;;;;;;1999.90;999.90;;;;;;;26.63;44.44;95889.44;5088919;28;20595;-67
2021/07/22 10:29:22;;;;;;;1999.90;999.90;;;;;;;27.01;41.49;95893.88;5088856;28;20683;-67
2021/07/22 10:31:52;;;;;;;1999.90;999.90;;;;;;;27.16;42.86;95889.97;5089114;28;20196;-67
2021/07/22 10:34:20;;;;;;;1999.90;999.90;;;;;;;27.35;42.48;95894.03;5089091;28;20204;-67
2021/07/22 10:36:48;;;;;;;1999.90;999.90;;;;;;;27.62;39.62;95896.94;5089066;28;20196;-67
2021/07/22 10:39:16;;;;;;;1999.90;999.90;;;;;;;27.32;39.58;95892.16;5089076;28;20227;-67
2021/07/22 10:41:45;;;;;;;1999.90;999.90;;;;;;;27.33;39.56;95883.78;5088539;28;20310;-67
2021/07/22 10:44:31;;;;;;;1999.90;999.90;;;;;;;27.56;38.34;95891.25;5088973;28;20196;-67
2021/07/22 10:47:00;;;;;;;1999.90;999.90;;;;;;;27.73;38.20;95882.34;5088741;28;20663;-68
2021/07/22 10:49:39;;;;;;;1999.90;999.90;;;;;;;27.51;39.40;95877.56;5088830;28;20674;-66
2021/07/22 10:52:06;;;;;;;1999.90;999.90;;;;;;;27.04;40.17;95892.34;5088831;28;20200;-66
2021/07/22 10:54:57;;;;;;;1999.90;999.90;;;;;;;26.53;41.08;95886.44;5088901;28;20192;-67
2021/07/22 10:57:39;;;;;;;1999.90;999.90;;;;;;;27.08;41.04;95877.81;5068626;28;20191;-66